KSWF/SWF METAR and TAF weather

Enter ICAO airport designator
Station Type Date Time Source
KSWF METAR 2019/02/16 06:45 UTC NOAA

KSWF 160645Z 27006KT 10SM SKC 02/M05 A2976


Station Type Date Time Source
KSWF Decoded METAR 2019/02/16 06:45 UTC NOAA

Newburgh / Stewart, NY, United States (KSWF) 41-30N 074-06W
Feb 16, 2019 - 01:45 AM EST / 2019.02.16 0645 UTC
Wind: from the W (270 degrees) at 7 MPH (6 KT):0
Visibility: 10 mile(s):0
Sky conditions: clear
Temperature: 35 F (2 C)
Windchill: 28 F (-2 C):1
Dew Point: 23 F (-5 C)
Relative Humidity: 59%
Pressure (altimeter): 29.76 in. Hg (1007 hPa)
ob: KSWF 160645Z 27006KT 10SM SKC 02/M05 A2976
cycle: 7

Station Type Date Time Source
KSWF TAF 2019/02/16 06:42 UTC NOAA

TAF KSWF 160540Z 1606/1712 30010KT P6SM FEW080 BKN200
FM161200 32012KT P6SM SKC
FM170000 34007KT P6SM SKC
FM170500 36005KT P6SM SKC
AMD NOT SKED


Example: see airport list